Time;durP1;ratioP1;P1;durP2;ratioP2;P2;SDS_P1;SDS_P2;PMS_P1;PMS_P2;Temp;Humidity;BMP_temperature;BMP_pressure;BME280_temperature;BME280_humidity;BME280_pressure;Samples;Min_cycle;Max_cycle;Signal;HPM_P1;HPM_P2
2024/04/03 00:00:24;;;;;;;0.43;0.10;;;10.70;98.80;;;;;;4842251;29;20519;-91
2024/04/03 00:02:51;;;;;;;0.75;0.10;;;10.60;98.70;;;;;;4855511;29;20140;-90
2024/04/03 00:05:21;;;;;;;0.63;0.20;;;10.70;98.60;;;;;;4853140;29;20102;-91
2024/04/03 00:07:47;;;;;;;1.40;0.10;;;10.60;98.80;;;;;;4838202;29;20048;-93
2024/04/03 00:10:16;;;;;;;0.28;0.10;;;10.60;98.80;;;;;;4839791;29;20051;-91
2024/04/03 00:12:42;;;;;;;1.17;0.20;;;10.50;99.10;;;;;;4835235;29;20156;-89
2024/04/03 00:15:15;;;;;;;1.00;0.20;;;10.40;99.10;;;;;;4852657;29;20430;-93
2024/04/03 00:17:41;;;;;;;;;;;10.40;99.60;;;;;;4844895;29;20592;-92
2024/04/03 00:20:09;;;;;;;2.70;0.10;;;10.30;99.80;;;;;;4834216;29;19959;-92
2024/04/03 00:22:36;;;;;;;0.93;0.10;;;10.20;99.80;;;;;;4836753;29;20069;-91
2024/04/03 00:25:04;;;;;;;1.75;0.20;;;10.30;99.90;;;;;;4824795;29;20040;-93
2024/04/03 00:27:33;;;;;;;0.45;0.10;;;10.30;99.90;;;;;;4838180;29;20418;-92
2024/04/03 00:30:01;;;;;;;2.20;0.10;;;10.40;99.90;;;;;;4842114;29;20037;-93
2024/04/03 00:32:29;;;;;;;0.45;0.10;;;10.40;99.90;;;;;;4851144;29;20601;-92
2024/04/03 00:34:57;;;;;;;0.75;0.10;;;10.30;99.90;;;;;;4840106;29;20037;-91
2024/04/03 00:37:24;;;;;;;0.70;0.10;;;10.30;99.90;;;;;;4843765;29;20144;-93
2024/04/03 00:39:54;;;;;;;1.13;0.10;;;10.30;99.90;;;;;;4841781;29;20430;-91
2024/04/03 00:42:21;;;;;;;0.70;0.10;;;10.30;99.90;;;;;;4840316;29;20069;-91
2024/04/03 00:44:53;;;;;;;1.55;0.10;;;10.30;99.90;;;;;;4838649;29;20049;-91
2024/04/03 00:47:28;;;;;;;1.42;0.10;;;10.30;99.90;;;;;;4844152;29;20045;-90
2024/04/03 00:49:58;;;;;;;1.95;0.20;;;10.20;99.90;;;;;;4831548;29;20418;-93
2024/04/03 00:52:25;;;;;;;2.88;0.32;;;10.20;99.90;;;;;;4832040;29;20078;-90
2024/04/03 00:54:57;;;;;;;2.88;0.65;;;10.20;99.90;;;;;;4851907;29;20144;-92
2024/04/03 00:57:24;;;;;;;1.80;0.32;;;10.10;99.90;;;;;;4840035;29;20056;-89
2024/04/03 00:59:52;;;;;;;1.27;0.40;;;10.10;99.90;;;;;;4846910;29;20058;-92
2024/04/03 01:02:20;;;;;;;1.58;0.40;;;10.10;99.90;;;;;;4832398;29;20052;-92
2024/04/03 01:04:50;;;;;;;3.67;0.63;;;10.10;99.90;;;;;;4847913;29;20084;-92
2024/04/03 01:07:18;;;;;;;1.48;0.28;;;10.00;99.90;;;;;;4845877;29;20513;-93
2024/04/03 01:09:45;;;;;;;3.38;0.80;;;10.00;99.90;;;;;;4832980;29;20038;-94
2024/04/03 01:12:13;;;;;;;1.70;0.47;;;9.90;99.90;;;;;;4823447;29;20141;-90
2024/04/03 01:14:40;;;;;;;2.92;0.68;;;9.90;99.90;;;;;;4852417;29;20750;-90
2024/04/03 01:17:07;;;;;;;3.20;0.57;;;9.80;99.90;;;;;;4855559;29;20064;-90
2024/04/03 01:19:34;;;;;;;8.43;1.25;;;9.80;99.90;;;;;;4840138;29;20079;-91
2024/04/03 01:22:03;;;;;;;1.77;0.52;;;9.70;99.90;;;;;;4851134;29;20070;-92
2024/04/03 01:24:31;;;;;;;4.93;0.95;;;9.80;99.90;;;;;;4833117;29;20117;-89
2024/04/03 01:26:58;;;;;;;4.43;0.60;;;9.80;99.90;;;;;;4832669;29;20478;-92
2024/04/03 01:29:25;;;;;;;3.92;0.98;;;9.60;99.90;;;;;;4843273;29;20450;-90
2024/04/03 01:31:53;;;;;;;2.85;1.00;;;9.70;99.90;;;;;;4844487;29;20053;-91
2024/04/03 01:34:20;;;;;;;2.08;0.40;;;9.70;99.90;;;;;;4835296;29;20068;-91
2024/04/03 01:36:47;;;;;;;3.72;0.40;;;9.60;99.90;;;;;;4835038;29;20180;-92
2024/04/03 01:39:15;;;;;;;2.78;0.40;;;9.60;99.90;;;;;;4858496;29;20041;-91
2024/04/03 01:41:44;;;;;;;0.90;0.20;;;9.60;99.90;;;;;;4845058;29;20168;-90
2024/04/03 01:44:11;;;;;;;1.25;0.35;;;9.70;99.90;;;;;;4842099;29;20054;-91
2024/04/03 01:46:39;;;;;;;2.05;0.80;;;9.70;99.90;;;;;;4843956;29;20077;-91
2024/04/03 01:49:05;;;;;;;1.25;0.30;;;9.70;99.90;;;;;;4837577;29;20052;-92
2024/04/03 01:51:33;;;;;;;2.70;0.93;;;9.60;99.90;;;;;;4844926;29;20047;-90
2024/04/03 01:54:00;;;;;;;0.82;0.20;;;9.60;99.90;;;;;;4846735;29;20131;-91
2024/04/03 01:56:28;;;;;;;4.60;0.73;;;9.60;99.90;;;;;;4845257;29;20144;-91
2024/04/03 01:58:56;;;;;;;2.80;0.38;;;9.60;99.90;;;;;;4844338;29;20565;-92
2024/04/03 02:01:24;;;;;;;1.73;0.40;;;9.40;99.90;;;;;;4850464;29;20112;-91
2024/04/03 02:03:51;;;;;;;3.47;0.40;;;9.50;99.90;;;;;;4853092;29;20045;-92
2024/04/03 02:06:19;;;;;;;1.73;0.35;;;10.30;99.90;;;;;;4856428;29;20479;-92
2024/04/03 02:08:45;;;;;;;2.17;0.43;;;9.50;99.90;;;;;;4845244;29;20101;-91
2024/04/03 02:11:16;;;;;;;3.05;0.30;;;9.50;99.90;;;;;;4846386;29;20480;-91
2024/04/03 02:13:43;;;;;;;1.15;0.38;;;9.50;99.90;;;;;;4843783;29;20135;-91
2024/04/03 02:16:12;;;;;;;1.63;0.40;;;9.50;99.90;;;;;;4841222;29;20093;-90
2024/04/03 02:18:39;;;;;;;1.25;0.40;;;9.50;99.90;;;;;;4840505;29;20049;-91
2024/04/03 02:21:08;;;;;;;2.13;0.28;;;9.50;99.90;;;;;;4835968;29;20067;-91
2024/04/03 02:23:35;;;;;;;1.30;0.43;;;9.40;99.90;;;;;;4858873;29;20123;-91
2024/04/03 02:26:02;;;;;;;2.30;0.35;;;9.40;99.90;;;;;;4843728;29;20140;-90
2024/04/03 02:28:29;;;;;;;0.85;0.20;;;9.30;99.90;;;;;;4838812;29;20037;-90
2024/04/03 02:31:03;;;;;;;1.95;0.28;;;9.30;99.90;;;;;;4850965;29;20038;-91
2024/04/03 02:33:31;;;;;;;0.80;0.38;;;9.20;99.90;;;;;;4850793;29;20095;-92
2024/04/03 02:35:58;;;;;;;4.03;0.22;;;9.30;99.90;;;;;;4841941;29;20482;-93
2024/04/03 02:38:25;;;;;;;0.95;0.10;;;9.20;99.90;;;;;;4839918;29;20065;-90
2024/04/03 02:40:53;;;;;;;0.20;0.10;;;9.30;99.90;;;;;;4854256;29;20068;-91
2024/04/03 02:43:19;;;;;;;1.15;0.10;;;9.30;99.90;;;;;;4837907;29;20045;-90
2024/04/03 02:45:54;;;;;;;0.40;0.10;;;9.20;99.90;;;;;;4833770;29;20445;-90
2024/04/03 02:48:22;;;;;;;0.60;0.10;;;9.30;99.90;;;;;;4843005;29;20119;-89
2024/04/03 02:51:00;;;;;;;0.80;0.10;;;9.30;99.90;;;;;;4853005;29;20040;-89
2024/04/03 02:53:27;;;;;;;0.88;0.25;;;9.30;99.90;;;;;;4836689;29;20421;-89
2024/04/03 02:55:57;;;;;;;1.48;0.13;;;9.30;99.90;;;;;;4856167;29;20053;-89
2024/04/03 02:58:24;;;;;;;0.70;0.10;;;9.20;99.90;;;;;;4849704;29;20050;-90
2024/04/03 03:00:59;;;;;;;0.95;0.20;;;9.40;99.90;;;;;;4841795;29;20049;-90
2024/04/03 03:03:26;;;;;;;0.80;0.10;;;9.20;99.90;;;;;;4837196;29;20053;-90
2024/04/03 03:05:55;;;;;;;0.65;0.20;;;9.10;99.90;;;;;;4859562;29;20098;-90
2024/04/03 03:08:22;;;;;;;0.77;0.20;;;9.20;99.90;;;;;;4849049;29;20052;-90
2024/04/03 03:10:50;;;;;;;1.92;0.10;;;9.10;99.90;;;;;;4844185;29;20121;-91
2024/04/03 03:13:18;;;;;;;0.93;0.30;;;9.20;99.90;;;;;;4853761;29;20046;-90
2024/04/03 03:15:55;;;;;;;0.55;0.20;;;9.20;99.90;;;;;;4840150;29;20132;-90
2024/04/03 03:18:24;;;;;;;0.90;0.20;;;9.20;99.90;;;;;;4837614;29;20159;-89
2024/04/03 03:20:53;;;;;;;0.93;0.20;;;9.10;99.90;;;;;;4842661;29;20045;-90
2024/04/03 03:23:21;;;;;;;1.85;0.20;;;9.20;99.90;;;;;;4852478;29;20048;-90
2024/04/03 03:25:51;;;;;;;4.47;0.30;;;9.10;99.90;;;;;;4839774;29;20064;-91
2024/04/03 03:28:19;;;;;;;0.80;0.20;;;9.20;99.90;;;;;;4841522;29;20167;-90
2024/04/03 03:30:48;;;;;;;0.85;0.40;;;9.10;99.90;;;;;;4856418;29;20105;-91
2024/04/03 03:33:17;;;;;;;2.90;0.52;;;9.00;99.90;;;;;;4840864;29;20052;-90
2024/04/03 03:35:52;;;;;;;2.00;0.20;;;9.00;99.90;;;;;;4844495;29;20068;-89
2024/04/03 03:38:23;;;;;;;2.17;0.30;;;9.10;99.90;;;;;;4852796;29;20048;-89
2024/04/03 03:40:52;;;;;;;1.58;0.30;;;9.10;99.90;;;;;;4853712;29;20061;-89
2024/04/03 03:43:21;;;;;;;0.77;0.20;;;9.10;99.90;;;;;;4852932;29;20132;-89
2024/04/03 03:45:51;;;;;;;1.27;0.32;;;9.10;99.90;;;;;;4851569;29;20140;-89
2024/04/03 03:48:18;;;;;;;0.60;0.20;;;9.00;99.90;;;;;;4833520;29;20674;-90
2024/04/03 03:53:33;;;;;;;2.00;0.40;;;9.00;99.90;;;;;;4842199;29;20069;-90
2024/04/03 03:56:08;;;;;;;0.98;0.30;;;9.00;99.90;;;;;;4840841;29;20498;-91
2024/04/03 03:58:35;;;;;;;1.88;0.40;;;8.90;99.90;;;;;;4836526;29;20077;-89
2024/04/03 04:01:06;;;;;;;1.42;0.50;;;8.90;99.90;;;;;;4840663;29;20052;-91
2024/04/03 04:03:34;;;;;;;1.98;0.60;;;8.90;99.90;;;;;;4842455;29;20065;-91
2024/04/03 04:06:01;;;;;;;1.35;0.45;;;8.90;99.90;;;;;;4837521;29;20061;-88
2024/04/03 04:08:29;;;;;;;1.85;0.20;;;8.80;99.90;;;;;;4853198;29;20469;-90
2024/04/03 04:10:58;;;;;;;1.70;0.70;;;8.80;99.90;;;;;;4840333;29;20467;-90
2024/04/03 04:13:25;;;;;;;1.65;0.40;;;8.90;99.90;;;;;;4837119;29;20090;-87
2024/04/03 04:15:52;;;;;;;1.98;0.38;;;8.90;99.90;;;;;;4841504;29;20065;-88
2024/04/03 04:18:23;;;;;;;0.93;0.35;;;8.80;99.90;;;;;;4838439;29;20053;-88
2024/04/03 04:20:55;;;;;;;1.45;0.38;;;8.80;99.90;;;;;;4860240;29;20057;-88
2024/04/03 04:23:22;;;;;;;2.22;0.50;;;8.80;99.90;;;;;;4838159;29;20129;-89
2024/04/03 04:26:02;;;;;;;0.68;0.30;;;8.80;99.90;;;;;;4842177;29;20038;-88
2024/04/03 04:28:32;;;;;;;1.90;0.30;;;8.80;99.90;;;;;;4842742;29;20132;-87
2024/04/03 04:31:02;;;;;;;1.25;0.43;;;8.80;99.90;;;;;;4841072;29;20061;-89
2024/04/03 04:33:30;;;;;;;1.40;0.45;;;9.20;99.90;;;;;;4849635;29;20152;-90
2024/04/03 04:35:57;;;;;;;1.80;0.50;;;8.80;99.90;;;;;;4843958;29;20482;-90
2024/04/03 04:38:26;;;;;;;1.33;0.60;;;8.80;99.90;;;;;;4848317;29;20049;-88
2024/04/03 04:40:54;;;;;;;1.85;0.52;;;9.20;99.90;;;;;;4852239;29;20053;-89
2024/04/03 04:43:24;;;;;;;0.85;0.40;;;8.70;99.90;;;;;;4855084;29;20065;-88
2024/04/03 04:45:58;;;;;;;1.85;0.50;;;8.70;99.90;;;;;;4851359;29;20073;-89
2024/04/03 04:48:27;;;;;;;1.17;0.40;;;9.00;99.90;;;;;;4846535;29;20109;-89
2024/04/03 04:50:56;;;;;;;1.90;0.60;;;8.70;99.90;;;;;;4853889;29;20049;-88
2024/04/03 04:53:24;;;;;;;2.40;0.70;;;9.20;99.90;;;;;;4836076;29;20069;-86
2024/04/03 04:55:53;;;;;;;1.55;0.60;;;8.80;99.90;;;;;;4831114;29;20129;-89
2024/04/03 04:58:20;;;;;;;1.38;0.57;;;8.80;99.90;;;;;;4854148;29;21564;-88
2024/04/03 05:00:49;;;;;;;2.25;0.70;;;8.70;99.90;;;;;;4845074;29;20712;-88
2024/04/03 05:03:18;;;;;;;1.83;0.47;;;8.70;99.90;;;;;;4843819;29;20049;-89
2024/04/03 05:05:45;;;;;;;1.40;0.52;;;8.70;99.90;;;;;;4846155;29;20036;-89
2024/04/03 05:08:13;;;;;;;1.98;0.60;;;8.70;99.90;;;;;;4844629;29;20048;-88
2024/04/03 05:10:39;;;;;;;3.00;0.57;;;8.80;99.90;;;;;;4841217;29;20029;-89
2024/04/03 05:13:07;;;;;;;1.42;0.50;;;8.80;99.90;;;;;;4856639;29;20072;-89
2024/04/03 05:15:34;;;;;;;3.20;0.70;;;8.90;99.90;;;;;;4835919;29;20048;-89
2024/04/03 05:18:03;;;;;;;3.55;0.68;;;8.90;99.90;;;;;;4850340;29;20144;-88
2024/04/03 05:20:31;;;;;;;2.05;0.80;;;8.80;99.90;;;;;;4839536;29;20128;-89
2024/04/03 05:22:59;;;;;;;1.85;0.60;;;8.80;99.90;;;;;;4838255;29;20406;-87
2024/04/03 05:25:25;;;;;;;3.63;0.93;;;8.90;99.90;;;;;;4835094;29;20037;-88
2024/04/03 05:27:53;;;;;;;2.55;0.60;;;8.80;99.90;;;;;;4837291;29;20482;-86
2024/04/03 05:30:22;;;;;;;1.77;0.40;;;9.00;99.90;;;;;;4835218;29;20577;-87
2024/04/03 05:32:50;;;;;;;1.90;0.50;;;8.80;99.90;;;;;;4841597;29;20148;-87
2024/04/03 05:35:18;;;;;;;2.33;0.57;;;8.90;99.90;;;;;;4839968;29;20042;-86
2024/04/03 05:37:46;;;;;;;1.23;0.45;;;8.80;99.90;;;;;;4850755;29;20486;-89
2024/04/03 05:40:14;;;;;;;3.78;0.88;;;9.00;99.90;;;;;;4853503;29;20045;-86
2024/04/03 05:42:42;;;;;;;1.70;0.93;;;8.90;99.90;;;;;;4832410;29;20803;-86
2024/04/03 05:45:09;;;;;;;3.88;1.13;;;9.00;99.90;;;;;;4838175;29;20080;-86
2024/04/03 05:47:36;;;;;;;2.72;0.70;;;8.90;99.90;;;;;;4850766;29;20070;-88
2024/04/03 05:50:05;;;;;;;2.72;1.08;;;9.00;99.90;;;;;;4836616;29;20132;-87
2024/04/03 05:52:35;;;;;;;4.68;1.17;;;9.10;99.90;;;;;;4855849;29;20148;-86
2024/04/03 05:55:02;;;;;;;2.60;0.88;;;9.10;99.90;;;;;;4851913;29;20052;-89
2024/04/03 05:57:31;;;;;;;1.88;0.68;;;9.20;99.90;;;;;;4847842;29;20048;-87
2024/04/03 05:59:57;;;;;;;2.25;0.63;;;9.20;99.90;;;;;;4834142;29;20077;-90
2024/04/03 06:02:25;;;;;;;4.38;0.70;;;9.30;99.90;;;;;;4856336;29;20518;-88
2024/04/03 06:04:52;;;;;;;3.47;1.13;;;9.50;99.90;;;;;;4846490;29;20143;-84
2024/04/03 06:07:22;;;;;;;2.42;0.77;;;9.60;99.90;;;;;;4838123;29;20398;-85
2024/04/03 06:09:51;;;;;;;2.60;0.80;;;9.80;99.90;;;;;;4828942;29;20085;-86
2024/04/03 06:12:21;;;;;;;4.32;0.55;;;9.90;99.90;;;;;;4837057;29;20037;-88
2024/04/03 06:14:48;;;;;;;2.65;0.60;;;10.00;99.90;;;;;;4845156;29;20045;-91
2024/04/03 06:17:18;;;;;;;4.82;0.93;;;10.20;99.90;;;;;;4840059;29;20042;-88
2024/04/03 06:19:45;;;;;;;1.30;0.52;;;10.30;99.90;;;;;;4862191;29;20089;-88
2024/04/03 06:22:12;;;;;;;2.33;0.65;;;10.40;99.90;;;;;;4843998;29;20129;-91
2024/04/03 06:24:40;;;;;;;1.63;0.47;;;10.50;99.90;;;;;;4839787;29;20808;-87
2024/04/03 06:27:09;;;;;;;3.63;0.55;;;10.70;99.90;;;;;;4841172;29;20044;-90
2024/04/03 06:29:35;;;;;;;2.85;0.70;;;10.80;99.90;;;;;;4837006;29;20049;-87
2024/04/03 06:32:04;;;;;;;2.67;0.70;;;10.90;99.90;;;;;;4856597;29;20176;-89
2024/04/03 06:34:30;;;;;;;2.42;0.55;;;11.10;99.90;;;;;;4852970;29;20045;-88
2024/04/03 06:36:58;;;;;;;1.70;0.90;;;11.20;99.90;;;;;;4848594;29;20136;-88
2024/04/03 06:39:25;;;;;;;1.80;0.57;;;11.30;99.90;;;;;;4844956;29;20116;-89
2024/04/03 06:41:52;;;;;;;3.17;0.90;;;11.50;99.90;;;;;;4836493;29;20107;-89
2024/04/03 06:44:21;;;;;;;1.55;0.85;;;11.70;99.90;;;;;;4837996;29;20662;-90
2024/04/03 06:46:49;;;;;;;2.45;0.50;;;11.80;99.90;;;;;;4838833;29;20073;-89
2024/04/03 06:49:15;;;;;;;1.70;0.50;;;11.90;99.90;;;;;;4853135;29;20517;-87
2024/04/03 06:51:43;;;;;;;1.73;0.60;;;12.00;99.90;;;;;;4838153;29;20422;-90
2024/04/03 06:54:09;;;;;;;1.83;0.60;;;12.00;99.90;;;;;;4837179;29;20041;-89
2024/04/03 06:56:37;;;;;;;2.00;0.80;;;12.00;99.90;;;;;;4837384;29;20550;-89
2024/04/03 06:59:04;;;;;;;2.08;0.98;;;12.10;99.90;;;;;;4857064;29;20767;-88
2024/04/03 07:01:33;;;;;;;3.35;0.40;;;12.40;99.90;;;;;;4854359;29;20049;-88
2024/04/03 07:03:59;;;;;;;2.05;0.68;;;12.40;99.90;;;;;;4844938;29;20497;-88
2024/04/03 07:06:28;;;;;;;2.25;0.73;;;12.70;99.90;;;;;;4844606;29;20041;-89
2024/04/03 07:08:55;;;;;;;2.65;1.00;;;12.70;99.90;;;;;;4840769;29;20053;-88
2024/04/03 07:11:23;;;;;;;1.92;0.45;;;12.80;99.90;;;;;;4853119;29;20045;-89
2024/04/03 07:13:49;;;;;;;1.02;0.40;;;12.90;99.90;;;;;;4843457;29;20096;-87
2024/04/03 07:16:17;;;;;;;2.45;0.60;;;12.90;99.90;;;;;;4837825;29;20131;-88
2024/04/03 07:18:45;;;;;;;2.85;0.40;;;13.10;99.90;;;;;;4833731;29;20042;-87
2024/04/03 07:21:12;;;;;;;7.00;0.70;;;13.10;99.90;;;;;;4857504;29;20104;-87
2024/04/03 07:23:39;;;;;;;2.72;0.40;;;13.10;99.90;;;;;;4841478;29;20057;-87
2024/04/03 07:26:07;;;;;;;1.23;0.40;;;13.40;99.90;;;;;;4854619;29;20061;-85
2024/04/03 07:28:34;;;;;;;1.27;0.45;;;13.50;99.90;;;;;;4841621;29;20106;-87
2024/04/03 07:31:02;;;;;;;3.25;0.40;;;13.40;99.90;;;;;;4841097;29;20041;-87
2024/04/03 07:33:28;;;;;;;1.88;0.40;;;13.60;99.90;;;;;;4836014;29;20045;-87
2024/04/03 07:35:58;;;;;;;0.90;0.45;;;13.60;99.90;;;;;;4847790;29;20097;-88
2024/04/03 07:38:24;;;;;;;1.33;0.40;;;13.50;99.90;;;;;;4831869;29;20048;-86
2024/04/03 07:40:54;;;;;;;1.73;0.47;;;14.10;99.90;;;;;;4836685;29;20057;-88
2024/04/03 07:43:21;;;;;;;1.88;0.40;;;14.20;99.90;;;;;;4841405;29;20133;-88
2024/04/03 07:45:48;;;;;;;1.95;0.30;;;14.10;99.90;;;;;;4825102;29;20045;-88
2024/04/03 07:48:16;;;;;;;2.00;0.30;;;14.30;99.90;;;;;;4837927;29;20041;-88
2024/04/03 07:50:42;;;;;;;2.15;0.25;;;14.40;99.90;;;;;;4847509;29;20052;-86
2024/04/03 07:53:11;;;;;;;1.95;0.50;;;14.30;99.90;;;;;;4835184;29;20105;-87
2024/04/03 07:55:39;;;;;;;1.58;0.30;;;14.40;99.90;;;;;;4833409;29;20604;-86
2024/04/03 07:58:07;;;;;;;2.83;0.40;;;14.40;99.90;;;;;;4842093;29;20048;-88
2024/04/03 08:00:34;;;;;;;1.83;0.20;;;14.70;99.90;;;;;;4830574;29;20060;-88
2024/04/03 08:03:02;;;;;;;3.00;0.20;;;14.80;99.90;;;;;;4836558;29;20045;-88
2024/04/03 08:05:28;;;;;;;1.95;0.20;;;15.00;99.90;;;;;;4842533;29;20056;-86
2024/04/03 08:07:56;;;;;;;3.10;0.25;;;15.10;98.60;;;;;;4846494;29;20048;-90
2024/04/03 08:10:24;;;;;;;0.90;0.40;;;15.20;98.10;;;;;;4837378;29;20060;-86
2024/04/03 08:12:53;;;;;;;0.80;0.20;;;15.30;97.00;;;;;;4836124;29;20053;-86
2024/04/03 08:15:20;;;;;;;2.15;0.20;;;15.30;96.70;;;;;;4842237;29;20048;-87
2024/04/03 08:17:48;;;;;;;4.28;0.60;;;15.30;96.80;;;;;;4837237;29;20132;-86
2024/04/03 08:20:14;;;;;;;1.77;0.25;;;15.40;96.90;;;;;;4834735;29;20133;-86
2024/04/03 08:22:42;;;;;;;0.80;0.35;;;15.50;97.00;;;;;;4842427;29;20136;-87
2024/04/03 08:25:10;;;;;;;9.02;1.65;;;15.60;95.90;;;;;;4832958;29;20109;-88
2024/04/03 08:27:40;;;;;;;3.65;0.30;;;15.70;96.10;;;;;;4829786;29;20045;-89
2024/04/03 08:30:08;;;;;;;2.05;0.28;;;15.80;95.60;;;;;;4840701;29;20148;-87
2024/04/03 08:32:35;;;;;;;1.55;0.30;;;15.80;95.60;;;;;;4848790;29;20076;-86
2024/04/03 08:35:03;;;;;;;2.17;0.30;;;16.00;96.50;;;;;;4836416;29;20122;-87
2024/04/03 08:37:31;;;;;;;3.63;1.13;;;15.90;96.10;;;;;;4850071;29;20053;-88
2024/04/03 08:39:58;;;;;;;12.10;2.45;;;16.10;93.50;;;;;;4854251;29;20045;-88
2024/04/03 08:42:26;;;;;;;5.43;1.00;;;16.10;92.60;;;;;;4850664;29;20064;-86
2024/04/03 08:44:57;;;;;;;1.70;0.30;;;16.10;92.10;;;;;;4837307;29;20490;-86
2024/04/03 08:47:26;;;;;;;1.23;0.22;;;16.40;92.10;;;;;;4828521;29;20046;-86
2024/04/03 08:49:52;;;;;;;1.80;0.20;;;16.50;92.90;;;;;;4838668;29;20038;-86
2024/04/03 08:52:22;;;;;;;1.73;0.10;;;16.60;91.50;;;;;;4841098;29;20033;-87
2024/04/03 08:54:54;;;;;;;1.90;0.20;;;16.70;90.90;;;;;;4833735;29;20497;-85
2024/04/03 08:57:22;;;;;;;1.50;0.30;;;16.80;87.80;;;;;;4835393;29;20055;-84
2024/04/03 08:59:49;;;;;;;1.60;0.15;;;16.80;89.90;;;;;;4834674;29;20051;-88
2024/04/03 09:02:19;;;;;;;3.75;0.10;;;17.00;88.10;;;;;;4843299;29;21322;-84
2024/04/03 09:04:48;;;;;;;3.90;0.20;;;16.90;86.00;;;;;;4828441;29;20045;-83
2024/04/03 09:07:20;;;;;;;11.82;1.60;;;16.80;87.00;;;;;;4826289;29;20049;-81
2024/04/03 09:09:47;;;;;;;39.72;5.78;;;17.00;88.00;;;;;;4837863;29;20101;-87
2024/04/03 09:12:15;;;;;;;9.45;1.23;;;17.20;85.60;;;;;;4849740;29;20049;-82
2024/04/03 09:14:45;;;;;;;0.93;0.20;;;17.10;81.20;;;;;;4846225;29;20054;-82
2024/04/03 09:17:13;;;;;;;1.98;0.10;;;17.20;82.20;;;;;;4835926;29;20049;-83
2024/04/03 09:19:49;;;;;;;0.45;0.10;;;17.30;83.20;;;;;;4840156;29;20105;-85
2024/04/03 09:22:18;;;;;;;1.77;0.13;;;17.40;78.00;;;;;;4847380;29;20053;-87
2024/04/03 09:24:46;;;;;;;0.50;0.10;;;17.40;79.80;;;;;;4824290;29;20080;-86
2024/04/03 09:27:14;;;;;;;1.35;0.20;;;17.50;82.00;;;;;;4838296;29;20033;-86
2024/04/03 09:29:50;;;;;;;0.63;0.30;;;17.30;76.10;;;;;;4848290;29;20046;-86
2024/04/03 09:32:17;;;;;;;2.65;0.25;;;17.60;76.50;;;;;;4832369;29;20070;-86
2024/04/03 09:34:47;;;;;;;0.80;0.20;;;17.70;80.00;;;;;;4846125;29;20514;-85
2024/04/03 09:37:15;;;;;;;0.50;0.10;;;17.70;78.50;;;;;;4838245;29;20053;-85
2024/04/03 09:39:41;;;;;;;7.05;0.38;;;17.60;77.60;;;;;;4840340;29;20152;-83
2024/04/03 09:42:18;;;;;;;3.90;0.10;;;17.50;76.30;;;;;;4837515;29;20049;-78
2024/04/03 09:44:47;;;;;;;11.68;1.73;;;17.70;79.10;;;;;;4850255;29;20144;-83
2024/04/03 09:47:16;;;;;;;10.63;1.33;;;18.00;76.20;;;;;;4842799;29;20052;-84
2024/04/03 09:49:49;;;;;;;3.80;0.30;;;18.10;73.10;;;;;;4833232;29;20045;-83
2024/04/03 09:52:18;;;;;;;6.43;1.15;;;18.20;73.70;;;;;;4848893;29;20041;-83
2024/04/03 09:54:46;;;;;;;0.98;0.10;;;18.20;73.10;;;;;;4835268;29;20045;-83
2024/04/03 09:57:17;;;;;;;5.43;0.85;;;18.30;72.70;;;;;;4851014;29;20128;-84
2024/04/03 09:59:49;;;;;;;3.28;0.20;;;18.10;69.70;;;;;;4849019;29;20570;-82
2024/04/03 10:02:19;;;;;;;1.33;0.00;;;18.00;70.70;;;;;;4856073;29;20136;-86
2024/04/03 10:04:48;;;;;;;4.47;0.38;;;18.10;70.70;;;;;;4832084;29;20090;-85
2024/04/03 10:07:18;;;;;;;0.43;0.00;;;18.20;71.90;;;;;;4828609;29;20049;-82
2024/04/03 10:09:50;;;;;;;1.38;0.00;;;18.30;69.90;;;;;;4829748;29;20044;-83
2024/04/03 10:12:19;;;;;;;4.20;0.20;;;18.50;72.50;;;;;;4834197;29;20052;-83
2024/04/03 10:14:55;;;;;;;0.70;0.00;;;18.30;67.80;;;;;;4856167;29;20072;-85
2024/04/03 10:17:24;;;;;;;0.95;0.00;;;18.50;69.30;;;;;;4836451;29;20052;-83
2024/04/03 10:19:59;;;;;;;0.10;0.00;;;18.50;69.10;;;;;;4837061;29;20082;-84
2024/04/03 10:22:30;;;;;;;0.93;0.00;;;18.60;68.40;;;;;;4839638;29;20153;-83
2024/04/03 10:24:57;;;;;;;0.45;0.00;;;18.70;67.20;;;;;;4835472;29;20049;-84
2024/04/03 10:27:24;;;;;;;1.60;0.10;;;18.80;68.80;;;;;;4833829;29;20093;-84
2024/04/03 10:30:00;;;;;;;1.80;0.00;;;18.90;67.20;;;;;;4853699;29;20094;-82
2024/04/03 10:32:29;;;;;;;1.42;0.13;;;18.90;65.10;;;;;;4849489;29;20300;-83
2024/04/03 10:34:55;;;;;;;1.98;0.17;;;19.10;65.60;;;;;;4847850;29;20041;-84
2024/04/03 10:37:25;;;;;;;1.50;0.10;;;18.80;64.00;;;;;;4836722;29;20045;-82
2024/04/03 10:39:57;;;;;;;1.08;0.10;;;18.90;64.80;;;;;;4831342;29;20593;-82
2024/04/03 10:42:30;;;;;;;1.27;0.08;;;18.90;64.40;;;;;;4830284;29;20506;-83
2024/04/03 10:44:57;;;;;;;0.65;0.00;;;19.00;64.90;;;;;;4837471;29;20473;-83
2024/04/03 10:47:26;;;;;;;2.28;0.00;;;19.10;65.90;;;;;;4834898;29;20045;-86
2024/04/03 10:49:53;;;;;;;0.63;0.00;;;19.20;66.10;;;;;;4839985;29;20069;-84
2024/04/03 10:52:21;;;;;;;1.95;0.00;;;19.10;64.30;;;;;;4833841;29;20060;-83
2024/04/03 10:54:49;;;;;;;1.55;0.00;;;19.10;65.90;;;;;;4833122;29;20039;-83
2024/04/03 10:57:17;;;;;;;0.32;0.00;;;19.20;65.90;;;;;;4838314;29;20048;-82
2024/04/03 10:59:45;;;;;;;1.40;0.00;;;19.30;64.80;;;;;;4850093;29;20128;-81
2024/04/03 11:02:12;;;;;;;1.98;0.20;;;19.20;66.10;;;;;;4834969;29;20045;-82
2024/04/03 11:04:40;;;;;;;1.60;0.10;;;19.20;65.40;;;;;;4838292;29;20813;-84
2024/04/03 11:07:08;;;;;;;3.08;0.30;;;19.40;65.20;;;;;;4835198;29;20068;-84
2024/04/03 11:09:35;;;;;;;1.52;0.50;;;19.30;65.70;;;;;;4834774;29;20052;-83
2024/04/03 11:12:04;;;;;;;7.00;0.10;;;19.40;66.00;;;;;;4837477;29;20166;-86
2024/04/03 11:14:31;;;;;;;1.00;0.00;;;19.30;65.90;;;;;;4854629;29;20079;-82
2024/04/03 11:16:59;;;;;;;2.72;0.10;;;19.40;68.20;;;;;;4838019;29;20069;-83
2024/04/03 11:19:26;;;;;;;1.73;0.15;;;19.70;68.20;;;;;;4850486;29;20079;-85
2024/04/03 11:21:54;;;;;;;2.05;0.25;;;19.70;67.70;;;;;;4840469;29;20055;-82
2024/04/03 11:24:21;;;;;;;1.10;0.10;;;19.50;68.70;;;;;;4834635;29;20046;-84
2024/04/03 11:26:49;;;;;;;2.20;0.17;;;19.30;70.00;;;;;;4833143;29;20048;-82
2024/04/03 11:29:28;;;;;;;3.65;0.10;;;19.20;71.00;;;;;;4839871;29;20045;-84
2024/04/03 11:31:55;;;;;;;1.45;0.20;;;19.40;70.80;;;;;;4843016;29;20052;-82
2024/04/03 11:34:23;;;;;;;0.70;0.00;;;19.50;70.10;;;;;;4842965;29;20048;-85
2024/04/03 11:36:52;;;;;;;1.17;0.10;;;19.70;72.00;;;;;;4832449;29;20049;-83
2024/04/03 11:39:19;;;;;;;1.17;0.15;;;19.80;71.60;;;;;;4834376;29;20044;-82
2024/04/03 11:41:47;;;;;;;0.60;0.10;;;19.80;73.00;;;;;;4838385;29;20502;-83
2024/04/03 11:44:14;;;;;;;0.93;0.10;;;20.00;72.60;;;;;;4849387;29;20049;-82
2024/04/03 11:46:44;;;;;;;1.15;0.10;;;19.80;71.90;;;;;;4835816;29;20053;-82
2024/04/03 11:49:11;;;;;;;3.08;0.43;;;20.00;72.90;;;;;;4838438;29;20132;-83
2024/04/03 11:51:38;;;;;;;1.88;0.10;;;20.20;71.60;;;;;;4834112;29;20124;-81
2024/04/03 11:54:07;;;;;;;2.20;0.20;;;20.20;71.70;;;;;;4835760;29;20494;-83
2024/04/03 11:56:35;;;;;;;3.10;0.20;;;20.20;70.00;;;;;;4833230;29;20047;-82
2024/04/03 11:59:03;;;;;;;1.13;0.08;;;20.20;70.20;;;;;;4830588;29;20041;-83
2024/04/03 12:01:30;;;;;;;0.85;0.10;;;20.30;68.60;;;;;;4828253;29;20418;-84
2024/04/03 12:03:59;;;;;;;0.80;0.20;;;20.40;68.80;;;;;;4835350;29;20525;-81
2024/04/03 12:06:27;;;;;;;1.55;0.10;;;20.10;69.10;;;;;;4816326;29;20437;-82
2024/04/03 12:08:54;;;;;;;1.42;0.10;;;20.50;70.10;;;;;;4834416;29;20033;-82
2024/04/03 12:11:21;;;;;;;1.48;0.30;;;20.60;70.10;;;;;;4833115;29;20472;-83
2024/04/03 12:13:48;;;;;;;1.63;0.10;;;20.40;70.00;;;;;;4842328;29;20043;-82
2024/04/03 12:16:20;;;;;;;2.13;0.20;;;20.30;71.20;;;;;;4836686;29;20529;-81
2024/04/03 12:18:50;;;;;;;1.08;0.10;;;20.40;72.00;;;;;;4828747;29;20429;-81
2024/04/03 12:21:20;;;;;;;2.67;0.30;;;20.10;72.60;;;;;;4829919;29;20061;-83
2024/04/03 12:23:47;;;;;;;2.65;0.47;;;20.00;73.30;;;;;;4853243;29;20042;-83
2024/04/03 12:26:16;;;;;;;4.22;0.90;;;19.90;72.80;;;;;;4834639;29;20033;-82
2024/04/03 12:28:43;;;;;;;1.20;0.10;;;19.90;72.90;;;;;;4831741;29;20075;-81
2024/04/03 12:31:11;;;;;;;1.42;0.10;;;19.70;73.20;;;;;;4848879;29;20052;-82
2024/04/03 12:33:37;;;;;;;2.42;1.10;;;19.50;73.90;;;;;;4833247;29;20050;-83
2024/04/03 12:36:06;;;;;;;2.20;0.73;;;19.50;75.00;;;;;;4844537;29;20069;-83
2024/04/03 12:38:34;;;;;;;2.53;0.20;;;19.60;74.80;;;;;;4832618;29;20041;-81
2024/04/03 12:41:02;;;;;;;2.13;0.10;;;19.50;74.80;;;;;;4844505;29;20041;-83
2024/04/03 12:43:29;;;;;;;2.80;0.30;;;19.50;74.70;;;;;;4837566;29;20087;-82
2024/04/03 12:45:58;;;;;;;1.35;0.20;;;19.60;73.40;;;;;;4836843;29;20053;-82
2024/04/03 12:48:25;;;;;;;1.70;0.10;;;19.50;75.50;;;;;;4836146;29;20421;-81
2024/04/03 12:50:54;;;;;;;1.05;0.20;;;19.50;76.90;;;;;;4846105;29;20056;-81
2024/04/03 12:53:21;;;;;;;0.60;0.10;;;19.40;75.00;;;;;;4847628;29;20049;-82
2024/04/03 12:55:50;;;;;;;2.72;0.15;;;19.50;76.10;;;;;;4833360;29;20509;-82
2024/04/03 12:58:17;;;;;;;1.38;0.10;;;19.30;76.40;;;;;;4847696;29;20541;-82